createdAt,value
2017-03-01T00:07:47.438Z,0
2017-03-01T00:18:01.363Z,0
2017-03-01T00:28:15.094Z,0
2017-03-01T00:38:28.625Z,0
2017-03-01T00:48:43.086Z,0
2017-03-01T00:58:57.099Z,0
2017-03-01T01:09:11.734Z,0
2017-03-01T01:19:26.638Z,0
2017-03-01T01:29:40.225Z,0
2017-03-01T01:39:53.291Z,0
2017-03-01T01:50:07.409Z,0
2017-03-01T02:00:21.076Z,0
2017-03-01T02:10:34.744Z,0
2017-03-01T02:20:49.000Z,0
2017-03-01T02:31:02.583Z,0
2017-03-01T02:41:16.923Z,0
2017-03-01T02:51:31.572Z,0
2017-03-01T03:01:44.957Z,0
2017-03-01T03:11:59.790Z,0
2017-03-01T03:22:14.036Z,0
2017-03-01T03:32:28.324Z,0
2017-03-01T03:42:42.130Z,0
2017-03-01T03:52:56.775Z,0
2017-03-01T04:03:10.915Z,0
2017-03-01T04:13:25.657Z,0
2017-03-01T04:23:40.448Z,0
2017-03-01T04:33:54.470Z,0
2017-03-01T04:44:07.961Z,0
2017-03-01T04:54:21.458Z,0
2017-03-01T05:04:36.260Z,0
2017-03-01T05:14:50.285Z,0
2017-03-01T05:25:03.885Z,0
2017-03-01T05:35:18.945Z,0
2017-03-01T05:45:32.575Z,0
2017-03-01T05:55:45.833Z,0
2017-03-01T06:05:59.875Z,0
2017-03-01T06:16:13.083Z,0
2017-03-01T06:26:27.147Z,0
2017-03-01T06:36:40.605Z,10
2017-03-01T06:46:55.528Z,15
2017-03-01T06:57:09.095Z,20
2017-03-01T07:07:22.581Z,45
2017-03-01T07:17:37.052Z,45
2017-03-01T07:27:50.471Z,50
2017-03-01T07:38:03.779Z,110
2017-03-01T07:48:17.835Z,140
2017-03-01T07:58:32.832Z,125
2017-03-01T08:08:46.408Z,105
2017-03-01T08:19:00.539Z,180
2017-03-01T08:29:14.627Z,215
2017-03-01T08:39:29.047Z,220
2017-03-01T08:49:42.848Z,160
2017-03-01T08:59:56.850Z,95
2017-03-01T09:10:09.950Z,130
2017-03-01T09:20:23.626Z,190
2017-03-01T09:30:39.023Z,190
2017-03-01T09:40:51.810Z,355
2017-03-01T09:51:05.279Z,1115
2017-03-01T10:01:19.196Z,825
2017-03-01T10:11:32.807Z,685
2017-03-01T10:21:47.243Z,775
2017-03-01T10:32:01.003Z,600
2017-03-01T10:42:15.643Z,190
2017-03-01T10:52:28.928Z,185
2017-03-01T11:02:42.819Z,145
2017-03-01T11:12:56.184Z,240
2017-03-01T11:23:09.431Z,245
2017-03-01T11:33:22.935Z,265
2017-03-01T11:43:36.315Z,490
2017-03-01T11:53:50.769Z,630
2017-03-01T12:04:05.350Z,445
2017-03-01T12:14:20.077Z,450
2017-03-01T12:24:33.659Z,1065
2017-03-01T12:34:48.521Z,545
2017-03-01T12:45:03.437Z,1275
2017-03-01T12:55:18.002Z,375
2017-03-01T13:05:32.407Z,505
2017-03-01T13:15:47.469Z,325
2017-03-01T13:26:00.955Z,605
2017-03-01T13:36:16.028Z,540
2017-03-01T13:46:30.592Z,1010
2017-03-01T13:56:45.741Z,455
2017-03-01T14:06:59.485Z,795
2017-03-01T14:17:14.259Z,890
2017-03-01T14:27:27.020Z,790
2017-03-01T14:37:41.240Z,350
2017-03-01T14:47:55.690Z,275
2017-03-01T14:58:09.263Z,345
2017-03-01T15:08:23.403Z,450
2017-03-01T15:18:38.489Z,315
2017-03-01T15:28:51.811Z,240
2017-03-01T15:39:06.766Z,160
2017-03-01T15:49:21.105Z,155
2017-03-01T15:59:34.684Z,165
2017-03-01T16:09:49.532Z,120
2017-03-01T16:20:02.710Z,90
2017-03-01T16:30:16.696Z,90
2017-03-01T16:40:31.059Z,40
2017-03-01T16:50:43.769Z,20
2017-03-01T17:00:57.418Z,0
2017-03-01T17:11:11.070Z,0
2017-03-01T17:21:24.409Z,0
2017-03-01T17:31:39.396Z,0
2017-03-01T17:41:53.796Z,0
2017-03-01T17:52:07.907Z,0
2017-03-01T18:02:21.932Z,0
2017-03-01T18:12:36.315Z,0
2017-03-01T18:22:49.765Z,0
2017-03-01T18:33:04.272Z,0
2017-03-01T18:43:18.458Z,0
2017-03-01T18:53:32.922Z,0
2017-03-01T19:03:46.457Z,0
2017-03-01T19:13:59.589Z,0
2017-03-01T19:24:14.527Z,0
2017-03-01T19:34:29.481Z,0
2017-03-01T19:44:42.530Z,0
2017-03-01T19:54:56.537Z,0
2017-03-01T20:05:09.447Z,0
2017-03-01T20:15:24.382Z,0
2017-03-01T20:25:39.139Z,0
2017-03-01T20:35:52.758Z,0
2017-03-01T20:46:06.711Z,0
2017-03-01T20:56:20.531Z,0
2017-03-01T21:06:34.132Z,0
2017-03-01T21:16:48.428Z,0
2017-03-01T21:27:02.380Z,0
2017-03-01T21:37:17.212Z,0
2017-03-01T21:47:31.433Z,0
2017-03-01T21:57:45.043Z,0
2017-03-01T22:07:59.874Z,0
2017-03-01T22:18:15.580Z,0
2017-03-01T22:28:28.323Z,0
2017-03-01T22:38:42.146Z,0
2017-03-01T22:48:56.197Z,0
2017-03-01T22:59:09.696Z,0
2017-03-01T23:09:23.517Z,0
2017-03-01T23:19:36.744Z,0
2017-03-01T23:29:50.195Z,0
2017-03-01T23:40:05.162Z,0
2017-03-01T23:50:19.350Z,0
